createdAt,value
2018-07-15T00:02:16.661Z,23.80
2018-07-15T00:04:44.764Z,23.80
2018-07-15T00:07:13.056Z,23.80
2018-07-15T00:09:41.208Z,23.80
2018-07-15T00:14:37.263Z,23.80
2018-07-15T00:17:05.441Z,23.80
2018-07-15T00:19:33.564Z,23.80
2018-07-15T00:22:01.656Z,23.80
2018-07-15T00:24:29.824Z,23.80
2018-07-15T00:29:25.880Z,23.80
2018-07-15T00:31:54.029Z,23.80
2018-07-15T00:34:22.128Z,23.80
2018-07-15T00:36:50.327Z,23.80
2018-07-15T00:39:18.404Z,23.80
2018-07-15T00:41:46.509Z,23.80
2018-07-15T00:44:14.600Z,23.80
2018-07-15T00:49:10.739Z,23.80
2018-07-15T00:51:38.845Z,23.80
2018-07-15T00:54:07.097Z,23.80
2018-07-15T00:56:35.313Z,23.80
2018-07-15T00:59:03.444Z,23.80
2018-07-15T01:01:31.525Z,23.80
2018-07-15T01:03:59.610Z,23.80
2018-07-15T01:06:27.670Z,23.80
2018-07-15T01:08:55.748Z,23.80
2018-07-15T01:13:51.692Z,23.80
2018-07-15T01:16:19.772Z,23.80
2018-07-15T01:18:47.868Z,23.80
2018-07-15T01:21:15.994Z,23.70
2018-07-15T01:23:44.152Z,23.70
2018-07-15T01:26:12.372Z,23.70
2018-07-15T01:28:40.472Z,23.80
2018-07-15T01:31:08.616Z,23.70
2018-07-15T01:38:32.659Z,23.80
2018-07-15T01:41:00.880Z,23.70
2018-07-15T01:43:28.951Z,23.70
2018-07-15T01:45:57.076Z,23.70
2018-07-15T01:48:25.157Z,23.70
2018-07-15T01:50:53.244Z,23.70
2018-07-15T01:53:21.348Z,23.70
2018-07-15T01:55:49.441Z,23.70
2018-07-15T01:58:17.536Z,23.70
2018-07-15T02:03:13.595Z,23.70
2018-07-15T02:05:41.697Z,23.70
2018-07-15T02:08:09.804Z,23.70
2018-07-15T02:10:38.051Z,23.70
2018-07-15T02:13:06.183Z,23.70
2018-07-15T02:15:34.424Z,23.70
2018-07-15T02:18:02.525Z,23.70
2018-07-15T02:20:37.124Z,23.70
2018-07-15T02:23:05.399Z,23.70
2018-07-15T02:25:33.540Z,23.70
2018-07-15T02:28:01.656Z,23.70
2018-07-15T02:30:29.733Z,23.70
2018-07-15T02:32:57.827Z,23.70
2018-07-15T02:35:25.996Z,23.70
2018-07-15T02:37:54.148Z,23.70
2018-07-15T02:40:22.231Z,23.70
2018-07-15T02:42:50.331Z,23.70
2018-07-15T02:45:18.447Z,23.70
2018-07-15T02:47:46.739Z,23.70
2018-07-15T02:50:14.883Z,23.70
2018-07-15T02:52:42.946Z,23.70
2018-07-15T02:55:11.114Z,23.70
2018-07-15T02:57:39.286Z,23.70
2018-07-15T03:00:07.870Z,23.70
2018-07-15T03:02:36.032Z,23.70
2018-07-15T03:05:04.333Z,23.70
2018-07-15T03:07:32.435Z,23.70
2018-07-15T03:10:00.536Z,23.70
2018-07-15T03:12:28.626Z,23.70
2018-07-15T03:14:56.956Z,23.70
2018-07-15T03:17:25.108Z,23.70
2018-07-15T03:19:53.198Z,23.70
2018-07-15T03:22:21.280Z,23.70
2018-07-15T03:24:49.373Z,23.70
2018-07-15T03:27:17.513Z,23.70
2018-07-15T03:29:45.621Z,23.70
2018-07-15T03:32:13.733Z,23.70
2018-07-15T03:34:41.829Z,23.70
2018-07-15T03:37:09.935Z,23.70
2018-07-15T03:39:38.033Z,23.70
2018-07-15T03:42:06.346Z,23.70
2018-07-15T03:44:34.479Z,23.70
2018-07-15T03:47:02.575Z,23.70
2018-07-15T03:49:30.663Z,23.70
2018-07-15T03:51:58.780Z,23.70
2018-07-15T03:54:26.829Z,23.70
2018-07-15T03:56:55.005Z,23.70
2018-07-15T03:59:23.075Z,23.70
2018-07-15T04:01:51.164Z,23.70
2018-07-15T04:04:19.336Z,23.70
2018-07-15T04:06:47.409Z,23.70
2018-07-15T04:09:15.476Z,23.60
2018-07-15T04:11:43.578Z,23.70
2018-07-15T04:14:11.707Z,23.60
2018-07-15T04:16:39.813Z,23.70
2018-07-15T04:19:07.924Z,23.70
2018-07-15T04:21:36.053Z,23.70
2018-07-15T04:24:04.180Z,23.60
2018-07-15T04:26:32.276Z,23.70
2018-07-15T04:29:00.512Z,23.60
2018-07-15T04:31:28.607Z,23.60
2018-07-15T04:33:56.700Z,23.60
2018-07-15T04:36:24.772Z,23.70
2018-07-15T04:38:52.909Z,23.60
2018-07-15T04:41:21.016Z,23.60
2018-07-15T04:43:49.111Z,23.60
2018-07-15T04:46:17.265Z,23.60
2018-07-15T04:48:45.384Z,23.60
2018-07-15T04:51:13.501Z,23.70
2018-07-15T04:53:41.652Z,23.70
2018-07-15T04:56:09.784Z,23.60
2018-07-15T04:58:38.011Z,23.70
2018-07-15T05:01:06.184Z,23.70
2018-07-15T05:03:34.284Z,23.60
2018-07-15T05:06:02.425Z,23.60
2018-07-15T05:08:30.511Z,23.60
2018-07-15T05:13:26.556Z,23.70
2018-07-15T05:15:54.636Z,23.60
2018-07-15T05:18:22.730Z,23.70
2018-07-15T05:20:50.872Z,23.60
2018-07-15T05:23:18.945Z,23.60
2018-07-15T05:25:47.024Z,23.70
2018-07-15T05:28:15.112Z,23.60
2018-07-15T05:30:43.189Z,23.70
2018-07-15T05:33:11.312Z,23.70
2018-07-15T05:35:39.466Z,23.70
2018-07-15T05:38:07.589Z,23.70
2018-07-15T05:40:35.744Z,23.60
2018-07-15T05:43:03.832Z,23.60
2018-07-15T05:45:31.935Z,23.60
2018-07-15T05:48:00.028Z,23.60
2018-07-15T05:50:28.116Z,23.60
2018-07-15T05:52:56.210Z,23.70
2018-07-15T05:55:24.448Z,23.70
2018-07-15T05:57:52.549Z,23.70
2018-07-15T06:00:20.672Z,23.60
2018-07-15T06:02:48.755Z,23.60
2018-07-15T06:05:16.853Z,23.70
2018-07-15T06:10:12.809Z,23.70
2018-07-15T06:12:40.952Z,23.70
2018-07-15T06:15:09.110Z,23.70
2018-07-15T06:22:34.382Z,23.60
2018-07-15T06:25:02.422Z,23.70
2018-07-15T06:29:58.596Z,23.60
2018-07-15T06:32:26.745Z,23.70
2018-07-15T06:34:54.849Z,23.60
2018-07-15T06:37:22.932Z,23.60
2018-07-15T06:39:51.036Z,23.60
2018-07-15T06:42:19.164Z,23.70
2018-07-15T06:44:47.818Z,23.70
2018-07-15T06:47:15.909Z,23.70
2018-07-15T06:49:44.000Z,23.70
2018-07-15T06:52:12.238Z,23.70
2018-07-15T06:54:40.354Z,23.70
2018-07-15T06:57:08.481Z,23.60
2018-07-15T07:02:04.615Z,23.70
2018-07-15T07:04:32.816Z,23.70
2018-07-15T07:07:01.112Z,23.70
2018-07-15T07:09:29.371Z,23.70
2018-07-15T07:11:57.476Z,23.70
2018-07-15T07:14:25.616Z,23.70
2018-07-15T07:16:53.705Z,23.70
2018-07-15T07:19:21.788Z,23.70
2018-07-15T07:21:49.867Z,23.70
2018-07-15T07:24:18.013Z,23.70
2018-07-15T07:26:46.098Z,23.70
2018-07-15T07:31:42.141Z,23.70
2018-07-15T07:34:10.289Z,23.70
2018-07-15T07:36:38.407Z,23.70
2018-07-15T07:39:06.715Z,23.70
2018-07-15T07:41:35.148Z,23.70
2018-07-15T07:44:03.271Z,23.70
2018-07-15T07:46:31.388Z,23.70
2018-07-15T07:48:59.478Z,23.70
2018-07-15T07:51:27.594Z,23.70
2018-07-15T07:53:55.748Z,23.80
2018-07-15T07:56:23.833Z,23.70
2018-07-15T07:58:51.915Z,23.70
2018-07-15T08:01:19.992Z,23.70
2018-07-15T08:06:16.035Z,23.80
2018-07-15T08:08:44.108Z,23.70
2018-07-15T08:11:12.285Z,23.70
2018-07-15T08:13:40.357Z,23.80
2018-07-15T08:16:08.697Z,23.80
2018-07-15T08:18:36.817Z,23.80
2018-07-15T08:21:04.926Z,23.80
2018-07-15T08:23:33.015Z,23.80
2018-07-15T08:26:01.104Z,23.90
2018-07-15T08:28:29.482Z,23.80
2018-07-15T08:31:03.324Z,23.90
2018-07-15T08:33:31.419Z,23.90
2018-07-15T08:35:59.660Z,23.90
2018-07-15T08:38:27.940Z,23.90
2018-07-15T08:43:23.977Z,23.90
2018-07-15T08:45:52.074Z,23.90
2018-07-15T08:48:20.141Z,23.90
2018-07-15T08:50:48.246Z,23.90
2018-07-15T08:53:16.396Z,23.90
2018-07-15T08:55:44.548Z,23.90
2018-07-15T08:58:12.659Z,23.90
2018-07-15T09:00:40.904Z,23.90
2018-07-15T09:05:37.030Z,23.90
2018-07-15T09:08:05.410Z,23.90
2018-07-15T09:10:33.502Z,24.00
2018-07-15T09:13:01.626Z,24.00
2018-07-15T09:15:29.712Z,24.00
2018-07-15T09:17:57.916Z,24.00
2018-07-15T09:20:26.021Z,24.00
2018-07-15T09:22:54.335Z,24.00
2018-07-15T09:25:22.454Z,24.00
2018-07-15T09:27:50.579Z,24.00
2018-07-15T09:30:18.662Z,24.00
2018-07-15T09:32:46.992Z,24.10
2018-07-15T09:35:15.555Z,24.10
2018-07-15T09:37:43.692Z,24.10
2018-07-15T09:40:11.977Z,24.10
2018-07-15T09:42:40.163Z,24.10
2018-07-15T09:45:08.330Z,24.10
2018-07-15T09:47:36.487Z,24.10
2018-07-15T09:50:04.589Z,24.10
2018-07-15T09:52:32.703Z,24.10
2018-07-15T09:55:00.788Z,24.10
2018-07-15T09:59:56.866Z,24.20
2018-07-15T10:02:25.096Z,24.20
2018-07-15T10:04:53.251Z,24.20
2018-07-15T10:07:21.330Z,24.20
2018-07-15T10:09:49.448Z,24.20
2018-07-15T10:12:17.540Z,24.20
2018-07-15T10:14:45.613Z,24.20
2018-07-15T10:17:13.778Z,24.20
2018-07-15T10:19:41.915Z,24.20
2018-07-15T10:22:10.069Z,24.20
2018-07-15T10:24:38.350Z,24.20
2018-07-15T10:27:06.520Z,24.20
2018-07-15T10:29:34.681Z,24.20
2018-07-15T10:32:02.800Z,24.20
2018-07-15T10:34:30.865Z,24.20
2018-07-15T10:36:59.004Z,24.20
2018-07-15T10:39:27.093Z,24.20
2018-07-15T10:41:55.160Z,24.20
2018-07-15T10:44:23.254Z,24.20
2018-07-15T10:46:51.393Z,24.20
2018-07-15T10:51:47.517Z,24.20
2018-07-15T10:54:15.689Z,24.30
2018-07-15T10:56:43.961Z,24.30
2018-07-15T10:59:12.125Z,24.30
2018-07-15T11:01:40.268Z,24.30
2018-07-15T11:04:08.384Z,24.30
2018-07-15T11:09:06.425Z,24.30
2018-07-15T11:11:34.605Z,24.30
2018-07-15T11:14:02.748Z,24.30
2018-07-15T11:16:30.878Z,24.30
2018-07-15T11:21:26.893Z,24.30
2018-07-15T11:23:54.965Z,24.30
2018-07-15T11:26:23.118Z,24.30
2018-07-15T11:28:51.209Z,24.30
2018-07-15T11:31:19.393Z,24.30
2018-07-15T11:33:47.424Z,24.30
2018-07-15T11:36:15.524Z,24.30
2018-07-15T11:38:43.701Z,24.30
2018-07-15T11:41:11.922Z,24.30
2018-07-15T11:43:40.222Z,24.30
2018-07-15T11:46:08.345Z,24.30
2018-07-15T11:48:36.478Z,24.40
2018-07-15T11:51:04.627Z,24.40
2018-07-15T11:53:32.873Z,24.30
2018-07-15T11:56:01.091Z,24.30
2018-07-15T11:58:29.160Z,24.40
2018-07-15T12:00:57.295Z,24.40
2018-07-15T12:03:25.377Z,24.40
2018-07-15T12:05:53.455Z,24.40
2018-07-15T12:10:49.553Z,24.40
2018-07-15T12:13:17.714Z,24.40
2018-07-15T12:15:45.934Z,24.40
2018-07-15T12:18:14.017Z,24.40
2018-07-15T12:20:42.384Z,24.40
2018-07-15T12:23:10.550Z,24.40
2018-07-15T12:25:38.705Z,24.50
2018-07-15T12:28:06.920Z,24.50
2018-07-15T12:30:35.069Z,24.50
2018-07-15T12:33:03.165Z,24.50
2018-07-15T12:35:31.264Z,24.50
2018-07-15T12:37:59.340Z,24.50
2018-07-15T12:40:27.537Z,24.50
2018-07-15T12:42:55.631Z,24.50
2018-07-15T12:45:23.702Z,24.50
2018-07-15T12:47:51.895Z,24.50
2018-07-15T12:50:20.080Z,24.50
2018-07-15T12:52:48.252Z,24.50
2018-07-15T12:55:16.353Z,24.50
2018-07-15T12:57:44.452Z,24.50
2018-07-15T13:00:12.556Z,24.50
2018-07-15T13:02:40.733Z,24.50
2018-07-15T13:05:08.841Z,24.50
2018-07-15T13:10:04.954Z,24.50
2018-07-15T13:12:33.057Z,24.50
2018-07-15T13:15:01.396Z,24.50
2018-07-15T13:17:29.477Z,24.50
2018-07-15T13:19:57.596Z,24.50
2018-07-15T13:22:25.709Z,24.50
2018-07-15T13:24:54.888Z,24.50
2018-07-15T13:27:23.016Z,24.50
2018-07-15T13:29:51.219Z,24.50
2018-07-15T13:32:19.360Z,24.50
2018-07-15T13:34:47.544Z,24.50
2018-07-15T13:37:15.641Z,24.50
2018-07-15T13:39:43.760Z,24.50
2018-07-15T13:42:11.920Z,24.50
2018-07-15T13:44:40.116Z,24.50
2018-07-15T13:47:08.303Z,24.50
2018-07-15T13:49:36.461Z,24.50
2018-07-15T13:52:04.825Z,24.50
2018-07-15T13:54:32.908Z,24.40
2018-07-15T13:57:01.073Z,24.50
2018-07-15T14:01:57.102Z,24.50
2018-07-15T14:04:25.207Z,24.50
2018-07-15T14:06:53.353Z,24.40
2018-07-15T14:09:21.456Z,24.40
2018-07-15T14:11:49.580Z,24.40
2018-07-15T14:14:17.692Z,24.40
2018-07-15T14:16:45.828Z,24.40
2018-07-15T14:19:14.025Z,24.40
2018-07-15T14:21:42.593Z,24.40
2018-07-15T14:24:10.777Z,24.40
2018-07-15T14:26:38.942Z,24.40
2018-07-15T14:29:07.224Z,24.40
2018-07-15T14:31:35.427Z,24.40
2018-07-15T14:34:04.220Z,24.40
2018-07-15T14:36:32.342Z,24.40
2018-07-15T14:39:00.432Z,24.40
2018-07-15T14:43:56.576Z,24.40
2018-07-15T14:46:24.688Z,24.40
2018-07-15T14:48:52.808Z,24.40
2018-07-15T14:51:20.892Z,24.40
2018-07-15T14:53:48.990Z,24.40
2018-07-15T14:56:17.124Z,24.40
2018-07-15T14:58:45.209Z,24.40
2018-07-15T15:01:13.308Z,24.40
2018-07-15T15:03:41.473Z,24.40
2018-07-15T15:06:09.708Z,24.40
2018-07-15T15:08:37.809Z,24.40
2018-07-15T15:11:06.257Z,24.40
2018-07-15T15:13:34.378Z,24.40
2018-07-15T15:16:02.661Z,24.40
2018-07-15T15:18:30.846Z,24.40
2018-07-15T15:25:54.802Z,24.40
2018-07-15T15:28:22.981Z,24.40
2018-07-15T15:30:51.076Z,24.40
2018-07-15T15:33:19.168Z,24.40
2018-07-15T15:35:47.419Z,24.40
2018-07-15T15:38:15.548Z,24.40
2018-07-15T15:40:43.781Z,24.40
2018-07-15T15:43:11.902Z,24.40
2018-07-15T15:45:40.022Z,24.40
2018-07-15T15:48:08.192Z,24.40
2018-07-15T15:50:36.341Z,24.40
2018-07-15T15:53:04.491Z,24.40
2018-07-15T15:55:32.885Z,24.40
2018-07-15T15:58:01.039Z,24.40
2018-07-15T16:00:29.131Z,24.40
2018-07-15T16:02:57.236Z,24.40
2018-07-15T16:05:25.361Z,24.40
2018-07-15T16:07:53.488Z,24.40
2018-07-15T16:10:21.630Z,24.40
2018-07-15T16:12:49.768Z,24.40
2018-07-15T16:15:17.844Z,24.40
2018-07-15T16:17:45.965Z,24.40
2018-07-15T16:20:14.061Z,24.40
2018-07-15T16:25:10.178Z,24.40
2018-07-15T16:27:38.352Z,24.40
2018-07-15T16:30:06.774Z,24.40
2018-07-15T16:32:34.884Z,24.40
2018-07-15T16:37:31.351Z,24.40
2018-07-15T16:39:59.451Z,24.40
2018-07-15T16:42:27.619Z,24.40
2018-07-15T16:44:55.814Z,24.40
2018-07-15T16:47:23.933Z,24.40
2018-07-15T16:49:52.156Z,24.40
2018-07-15T16:52:20.184Z,24.40
2018-07-15T16:54:48.276Z,24.40
2018-07-15T16:57:16.585Z,24.40
2018-07-15T16:59:44.734Z,24.40
2018-07-15T17:02:12.838Z,24.40
2018-07-15T17:04:41.060Z,24.40
2018-07-15T17:07:09.174Z,24.40
2018-07-15T17:09:37.325Z,24.40
2018-07-15T17:12:05.801Z,24.40
2018-07-15T17:14:33.966Z,24.40
2018-07-15T17:17:02.039Z,24.40
2018-07-15T17:21:58.242Z,24.40
2018-07-15T17:24:26.333Z,24.40
2018-07-15T17:26:54.465Z,24.30
2018-07-15T17:29:22.732Z,24.30
2018-07-15T17:31:50.812Z,24.40
2018-07-15T17:34:18.957Z,24.30
2018-07-15T17:36:47.200Z,24.30
2018-07-15T17:39:15.290Z,24.30
2018-07-15T17:41:43.492Z,24.30
2018-07-15T17:44:11.627Z,24.30
2018-07-15T17:49:07.768Z,24.30
2018-07-15T17:51:35.986Z,24.30
2018-07-15T17:54:04.121Z,24.30
2018-07-15T17:56:32.289Z,24.30
2018-07-15T17:59:00.351Z,24.30
2018-07-15T18:01:28.496Z,24.30
2018-07-15T18:03:56.582Z,24.30
2018-07-15T18:06:24.670Z,24.40
2018-07-15T18:08:52.814Z,24.30
2018-07-15T18:11:21.044Z,24.30
2018-07-15T18:16:17.092Z,24.30
2018-07-15T18:18:45.161Z,24.30
2018-07-15T18:21:13.350Z,24.30
2018-07-15T18:23:41.422Z,24.30
2018-07-15T18:26:09.546Z,24.30
2018-07-15T18:28:37.775Z,24.30
2018-07-15T18:31:06.164Z,24.30
2018-07-15T18:33:34.322Z,24.30
2018-07-15T18:36:02.525Z,24.30
2018-07-15T18:38:30.588Z,24.30
2018-07-15T18:40:58.760Z,24.30
2018-07-15T18:43:26.910Z,24.30
2018-07-15T18:45:54.916Z,24.30
2018-07-15T18:48:23.096Z,24.30
2018-07-15T18:50:51.191Z,24.30
2018-07-15T18:53:19.296Z,24.30
2018-07-15T18:55:47.576Z,24.30
2018-07-15T18:58:15.657Z,24.30
2018-07-15T19:00:43.760Z,24.30
2018-07-15T19:03:11.902Z,24.30
2018-07-15T19:05:40.176Z,24.30
2018-07-15T19:08:08.290Z,24.30
2018-07-15T19:10:36.437Z,24.30
2018-07-15T19:13:04.549Z,24.30
2018-07-15T19:15:32.640Z,24.30
2018-07-15T19:18:00.732Z,24.30
2018-07-15T19:20:28.922Z,24.30
2018-07-15T19:22:57.008Z,24.30
2018-07-15T19:25:25.148Z,24.30
2018-07-15T19:27:53.252Z,24.20
2018-07-15T19:30:21.420Z,24.20
2018-07-15T19:32:49.559Z,24.20
2018-07-15T19:35:17.756Z,24.20
2018-07-15T19:37:45.856Z,24.20
2018-07-15T19:40:14.036Z,24.20
2018-07-15T19:42:42.168Z,24.20
2018-07-15T19:45:10.348Z,24.20
2018-07-15T19:47:38.457Z,24.20
2018-07-15T19:50:06.636Z,24.20
2018-07-15T19:52:34.788Z,24.20
2018-07-15T19:55:02.926Z,24.20
2018-07-15T19:57:31.076Z,24.20
2018-07-15T19:59:59.205Z,24.20
2018-07-15T20:02:27.294Z,24.20
2018-07-15T20:04:55.386Z,24.20
2018-07-15T20:07:23.450Z,24.20
2018-07-15T20:09:51.524Z,24.20
2018-07-15T20:12:19.869Z,24.20
2018-07-15T20:14:48.207Z,24.20
2018-07-15T20:17:16.294Z,24.20
2018-07-15T20:22:12.368Z,24.20
2018-07-15T20:24:40.598Z,24.20
2018-07-15T20:27:08.711Z,24.10
2018-07-15T20:29:36.845Z,24.10
2018-07-15T20:32:04.960Z,24.10
2018-07-15T20:34:33.105Z,24.10
2018-07-15T20:37:01.312Z,24.10
2018-07-15T20:39:29.578Z,24.10
2018-07-15T20:44:25.642Z,24.10
2018-07-15T20:46:53.924Z,24.10
2018-07-15T20:49:22.054Z,24.10
2018-07-15T20:51:50.201Z,24.10
2018-07-15T20:54:18.421Z,24.10
2018-07-15T20:56:46.664Z,24.10
2018-07-15T20:59:14.968Z,24.10
2018-07-15T21:01:43.193Z,24.10
2018-07-15T21:04:11.401Z,24.10
2018-07-15T21:06:39.625Z,24.10
2018-07-15T21:09:07.825Z,24.10
2018-07-15T21:11:36.064Z,24.10
2018-07-15T21:14:04.248Z,24.10
2018-07-15T21:16:32.361Z,24.10
2018-07-15T21:19:00.467Z,24.10
2018-07-15T21:21:28.653Z,24.10
2018-07-15T21:23:56.805Z,24.10
2018-07-15T21:26:24.897Z,24.10
2018-07-15T21:28:53.205Z,24.10
2018-07-15T21:31:21.592Z,24.10
2018-07-15T21:33:49.712Z,24.10
2018-07-15T21:38:45.842Z,24.10
2018-07-15T21:41:13.995Z,24.10
2018-07-15T21:43:42.299Z,24.10
2018-07-15T21:48:38.977Z,24.10
2018-07-15T21:51:07.166Z,24.10
2018-07-15T21:53:35.365Z,24.10
2018-07-15T21:56:03.451Z,24.10
2018-07-15T21:58:31.552Z,24.10
2018-07-15T22:00:59.635Z,24.10
2018-07-15T22:03:27.765Z,24.10
2018-07-15T22:08:35.493Z,24.10
2018-07-15T22:13:31.445Z,24.10
2018-07-15T22:15:59.603Z,24.10
2018-07-15T22:18:27.691Z,24.10
2018-07-15T22:20:55.776Z,24.10
2018-07-15T22:23:23.844Z,24.10
2018-07-15T22:25:51.906Z,24.10
2018-07-15T22:28:20.078Z,24.10
2018-07-15T22:30:48.150Z,24.10
2018-07-15T22:33:16.223Z,24.10
2018-07-15T22:35:44.455Z,24.10
2018-07-15T22:38:12.540Z,24.10
2018-07-15T22:40:40.727Z,24.10
2018-07-15T22:43:08.894Z,24.10
2018-07-15T22:48:04.924Z,24.10
2018-07-15T22:50:33.000Z,24.10
2018-07-15T22:53:01.141Z,24.10
2018-07-15T22:55:29.211Z,24.10
2018-07-15T22:57:57.319Z,24.10
2018-07-15T23:00:25.401Z,24.10
2018-07-15T23:02:53.538Z,24.10
2018-07-15T23:05:37.092Z,24.10
2018-07-15T23:08:05.812Z,24.10
2018-07-15T23:10:34.025Z,24.10
2018-07-15T23:13:03.171Z,24.10
2018-07-15T23:15:31.767Z,24.10
2018-07-15T23:18:00.155Z,24.10
2018-07-15T23:20:29.167Z,24.10
2018-07-15T23:22:57.870Z,24.10
2018-07-15T23:25:25.976Z,24.10
2018-07-15T23:27:54.090Z,24.10
2018-07-15T23:30:22.193Z,24.10
2018-07-15T23:32:50.292Z,24.10
2018-07-15T23:35:18.420Z,24.10
2018-07-15T23:37:46.727Z,24.10
2018-07-15T23:40:14.828Z,24.10
2018-07-15T23:42:42.968Z,24.10
2018-07-15T23:45:11.085Z,24.10
2018-07-15T23:47:39.229Z,24.10
2018-07-15T23:50:07.634Z,24.10
2018-07-15T23:52:35.734Z,24.10
2018-07-15T23:55:04.108Z,24.10
2018-07-15T23:57:32.241Z,24.00
